sensor_id;sensor_type;location;lat;lon;timestamp;temperature;humidity
14924;DHT22;7554;43.600;1.480;2023-07-29T00:02:17;22.80;1.00
14924;DHT22;7554;43.600;1.480;2023-07-29T00:04:44;22.80;1.00
14924;DHT22;7554;43.600;1.480;2023-07-29T00:07:11;22.70;1.00
14924;DHT22;7554;43.600;1.480;2023-07-29T00:09:39;22.70;1.00
14924;DHT22;7554;43.600;1.480;2023-07-29T00:12:08;22.70;1.00
14924;DHT22;7554;43.600;1.480;2023-07-29T00:14:35;22.70;1.00
14924;DHT22;7554;43.600;1.480;2023-07-29T00:17:03;22.70;1.00
14924;DHT22;7554;43.600;1.480;2023-07-29T00:19:30;22.60;1.00
14924;DHT22;7554;43.600;1.480;2023-07-29T00:21:59;22.60;1.00
14924;DHT22;7554;43.600;1.480;2023-07-29T00:24:27;22.60;1.00
14924;DHT22;7554;43.600;1.480;2023-07-29T00:26:54;22.60;1.00
14924;DHT22;7554;43.600;1.480;2023-07-29T00:29:23;22.50;1.00
14924;DHT22;7554;43.600;1.480;2023-07-29T00:31:50;22.50;1.00
14924;DHT22;7554;43.600;1.480;2023-07-29T00:34:17;22.50;1.00
14924;DHT22;7554;43.600;1.480;2023-07-29T00:36:45;22.40;1.00
14924;DHT22;7554;43.600;1.480;2023-07-29T00:39:12;22.40;1.00
14924;DHT22;7554;43.600;1.480;2023-07-29T00:41:40;22.40;1.00
14924;DHT22;7554;43.600;1.480;2023-07-29T00:44:08;22.40;1.00
14924;DHT22;7554;43.600;1.480;2023-07-29T00:46:38;22.40;1.00
14924;DHT22;7554;43.600;1.480;2023-07-29T00:49:07;22.40;1.00
14924;DHT22;7554;43.600;1.480;2023-07-29T00:51:35;22.40;1.00
14924;DHT22;7554;43.600;1.480;2023-07-29T00:54:02;22.30;1.00
14924;DHT22;7554;43.600;1.480;2023-07-29T00:56:30;22.30;1.00
14924;DHT22;7554;43.600;1.480;2023-07-29T00:58:58;22.30;1.00
14924;DHT22;7554;43.600;1.480;2023-07-29T01:01:27;22.30;1.00
14924;DHT22;7554;43.600;1.480;2023-07-29T01:03:57;22.30;1.00
14924;DHT22;7554;43.600;1.480;2023-07-29T01:06:29;22.30;1.00
14924;DHT22;7554;43.600;1.480;2023-07-29T01:09:02;22.30;1.00
14924;DHT22;7554;43.600;1.480;2023-07-29T01:11:38;22.20;1.00
14924;DHT22;7554;43.600;1.480;2023-07-29T01:14:16;22.20;1.00
14924;DHT22;7554;43.600;1.480;2023-07-29T01:16:49;22.20;1.00
14924;DHT22;7554;43.600;1.480;2023-07-29T01:19:34;22.20;1.00
14924;DHT22;7554;43.600;1.480;2023-07-29T01:22:07;22.20;1.00
14924;DHT22;7554;43.600;1.480;2023-07-29T01:24:36;22.20;1.00
14924;DHT22;7554;43.600;1.480;2023-07-29T01:27:04;22.20;1.00
14924;DHT22;7554;43.600;1.480;2023-07-29T01:29:32;22.10;1.00
14924;DHT22;7554;43.600;1.480;2023-07-29T01:32:07;22.10;1.00
14924;DHT22;7554;43.600;1.480;2023-07-29T01:34:41;22.10;1.00
14924;DHT22;7554;43.600;1.480;2023-07-29T01:37:16;22.00;1.00
14924;DHT22;7554;43.600;1.480;2023-07-29T01:39:50;22.00;1.00
14924;DHT22;7554;43.600;1.480;2023-07-29T01:42:18;22.00;1.00
14924;DHT22;7554;43.600;1.480;2023-07-29T01:44:45;22.00;1.00
14924;DHT22;7554;43.600;1.480;2023-07-29T01:47:13;22.00;1.00
14924;DHT22;7554;43.600;1.480;2023-07-29T01:49:40;22.00;1.00
14924;DHT22;7554;43.600;1.480;2023-07-29T01:52:07;22.00;1.00
14924;DHT22;7554;43.600;1.480;2023-07-29T01:54:35;21.90;1.00
14924;DHT22;7554;43.600;1.480;2023-07-29T01:57:04;21.90;1.00
14924;DHT22;7554;43.600;1.480;2023-07-29T01:59:31;21.90;1.00
14924;DHT22;7554;43.600;1.480;2023-07-29T02:01:58;21.90;1.00
14924;DHT22;7554;43.600;1.480;2023-07-29T02:04:26;21.90;1.00
14924;DHT22;7554;43.600;1.480;2023-07-29T02:06:53;21.90;1.00
14924;DHT22;7554;43.600;1.480;2023-07-29T02:09:20;21.90;1.00
14924;DHT22;7554;43.600;1.480;2023-07-29T02:11:48;21.90;1.00
14924;DHT22;7554;43.600;1.480;2023-07-29T02:14:17;21.90;1.00
14924;DHT22;7554;43.600;1.480;2023-07-29T02:16:44;21.90;1.00
14924;DHT22;7554;43.600;1.480;2023-07-29T02:19:11;21.80;1.00
14924;DHT22;7554;43.600;1.480;2023-07-29T02:21:39;21.80;1.00
14924;DHT22;7554;43.600;1.480;2023-07-29T02:24:06;21.80;1.00
14924;DHT22;7554;43.600;1.480;2023-07-29T02:26:33;21.70;1.00
14924;DHT22;7554;43.600;1.480;2023-07-29T02:29:00;21.70;1.00
14924;DHT22;7554;43.600;1.480;2023-07-29T02:31:29;21.70;1.00
14924;DHT22;7554;43.600;1.480;2023-07-29T02:33:57;21.70;1.00
14924;DHT22;7554;43.600;1.480;2023-07-29T02:36:24;21.60;1.00
14924;DHT22;7554;43.600;1.480;2023-07-29T02:38:51;21.60;1.00
14924;DHT22;7554;43.600;1.480;2023-07-29T02:41:19;21.60;1.00
14924;DHT22;7554;43.600;1.480;2023-07-29T02:43:49;21.50;1.00
14924;DHT22;7554;43.600;1.480;2023-07-29T02:46:16;21.40;1.00
14924;DHT22;7554;43.600;1.480;2023-07-29T02:48:45;21.40;1.00
14924;DHT22;7554;43.600;1.480;2023-07-29T02:51:13;21.50;1.00
14924;DHT22;7554;43.600;1.480;2023-07-29T02:53:40;21.50;1.00
14924;DHT22;7554;43.600;1.480;2023-07-29T02:56:08;21.50;1.00
14924;DHT22;7554;43.600;1.480;2023-07-29T02:58:36;21.50;1.00
14924;DHT22;7554;43.600;1.480;2023-07-29T03:01:04;21.50;1.00
14924;DHT22;7554;43.600;1.480;2023-07-29T03:03:32;21.40;1.00
14924;DHT22;7554;43.600;1.480;2023-07-29T03:06:02;21.40;1.00
14924;DHT22;7554;43.600;1.480;2023-07-29T03:08:30;21.40;1.00
14924;DHT22;7554;43.600;1.480;2023-07-29T03:10:58;21.40;1.00
14924;DHT22;7554;43.600;1.480;2023-07-29T03:13:25;21.50;1.00
14924;DHT22;7554;43.600;1.480;2023-07-29T03:15:53;21.50;1.00
14924;DHT22;7554;43.600;1.480;2023-07-29T03:18:20;21.50;1.00
14924;DHT22;7554;43.600;1.480;2023-07-29T03:20:49;21.40;1.00
14924;DHT22;7554;43.600;1.480;2023-07-29T03:23:18;21.40;1.00
14924;DHT22;7554;43.600;1.480;2023-07-29T03:25:48;21.40;1.00
14924;DHT22;7554;43.600;1.480;2023-07-29T03:28:17;21.40;1.00
14924;DHT22;7554;43.600;1.480;2023-07-29T03:30:44;21.40;1.00
14924;DHT22;7554;43.600;1.480;2023-07-29T03:33:11;21.30;1.00
14924;DHT22;7554;43.600;1.480;2023-07-29T03:35:38;21.30;1.00
14924;DHT22;7554;43.600;1.480;2023-07-29T03:38:06;21.30;1.00
14924;DHT22;7554;43.600;1.480;2023-07-29T03:40:34;21.30;1.00
14924;DHT22;7554;43.600;1.480;2023-07-29T03:43:02;21.30;1.00
14924;DHT22;7554;43.600;1.480;2023-07-29T03:45:29;21.30;1.00
14924;DHT22;7554;43.600;1.480;2023-07-29T03:47:56;21.30;1.00
14924;DHT22;7554;43.600;1.480;2023-07-29T03:50:24;21.20;1.00
14924;DHT22;7554;43.600;1.480;2023-07-29T03:52:51;21.20;1.00
14924;DHT22;7554;43.600;1.480;2023-07-29T03:55:18;21.20;1.00
14924;DHT22;7554;43.600;1.480;2023-07-29T03:57:48;21.10;1.00
14924;DHT22;7554;43.600;1.480;2023-07-29T04:00:15;21.10;1.00
14924;DHT22;7554;43.600;1.480;2023-07-29T04:02:42;21.10;1.00
14924;DHT22;7554;43.600;1.480;2023-07-29T04:05:11;21.10;1.00
14924;DHT22;7554;43.600;1.480;2023-07-29T04:07:38;21.10;1.00
14924;DHT22;7554;43.600;1.480;2023-07-29T04:10:07;21.10;1.00
14924;DHT22;7554;43.600;1.480;2023-07-29T04:12:34;21.00;1.00
14924;DHT22;7554;43.600;1.480;2023-07-29T04:15:04;21.00;1.00
14924;DHT22;7554;43.600;1.480;2023-07-29T04:17:31;21.00;1.00
14924;DHT22;7554;43.600;1.480;2023-07-29T04:19:58;20.90;1.00
14924;DHT22;7554;43.600;1.480;2023-07-29T04:22:26;20.90;1.00
14924;DHT22;7554;43.600;1.480;2023-07-29T04:24:53;20.90;1.00
14924;DHT22;7554;43.600;1.480;2023-07-29T04:27:20;21.00;1.00
14924;DHT22;7554;43.600;1.480;2023-07-29T04:29:48;21.00;1.00
14924;DHT22;7554;43.600;1.480;2023-07-29T04:32:17;20.90;1.00
14924;DHT22;7554;43.600;1.480;2023-07-29T04:34:44;21.00;1.00
14924;DHT22;7554;43.600;1.480;2023-07-29T04:37:12;21.00;1.00
14924;DHT22;7554;43.600;1.480;2023-07-29T04:39:39;21.00;1.00
14924;DHT22;7554;43.600;1.480;2023-07-29T04:42:06;20.90;1.00
14924;DHT22;7554;43.600;1.480;2023-07-29T04:44:34;20.90;1.00
14924;DHT22;7554;43.600;1.480;2023-07-29T04:47:01;20.90;1.00
14924;DHT22;7554;43.600;1.480;2023-07-29T04:49:30;21.00;1.00
14924;DHT22;7554;43.600;1.480;2023-07-29T04:51:57;21.10;1.00
14924;DHT22;7554;43.600;1.480;2023-07-29T04:54:24;21.20;1.00
14924;DHT22;7554;43.600;1.480;2023-07-29T04:56:51;21.40;1.00
14924;DHT22;7554;43.600;1.480;2023-07-29T04:59:19;21.60;1.00
14924;DHT22;7554;43.600;1.480;2023-07-29T05:01:46;21.80;1.00
14924;DHT22;7554;43.600;1.480;2023-07-29T05:04:14;22.20;1.00
14924;DHT22;7554;43.600;1.480;2023-07-29T05:06:42;22.40;1.00
14924;DHT22;7554;43.600;1.480;2023-07-29T05:09:13;22.80;1.00
14924;DHT22;7554;43.600;1.480;2023-07-29T05:11:41;23.00;1.00
14924;DHT22;7554;43.600;1.480;2023-07-29T05:14:09;23.30;1.00
14924;DHT22;7554;43.600;1.480;2023-07-29T05:16:37;23.70;1.00
14924;DHT22;7554;43.600;1.480;2023-07-29T05:19:04;24.20;1.00
14924;DHT22;7554;43.600;1.480;2023-07-29T05:21:31;24.60;1.00
14924;DHT22;7554;43.600;1.480;2023-07-29T05:24:00;24.90;1.00
14924;DHT22;7554;43.600;1.480;2023-07-29T05:26:28;25.30;1.00
14924;DHT22;7554;43.600;1.480;2023-07-29T05:28:55;25.60;1.00
14924;DHT22;7554;43.600;1.480;2023-07-29T05:31:22;25.90;1.00
14924;DHT22;7554;43.600;1.480;2023-07-29T05:33:49;26.10;1.00
14924;DHT22;7554;43.600;1.480;2023-07-29T05:36:17;26.50;1.00
14924;DHT22;7554;43.600;1.480;2023-07-29T05:38:44;26.70;1.00
14924;DHT22;7554;43.600;1.480;2023-07-29T05:41:13;27.10;1.00
14924;DHT22;7554;43.600;1.480;2023-07-29T05:43:40;27.30;1.00
14924;DHT22;7554;43.600;1.480;2023-07-29T05:46:09;27.90;1.00
14924;DHT22;7554;43.600;1.480;2023-07-29T05:48:36;28.20;1.00
14924;DHT22;7554;43.600;1.480;2023-07-29T05:51:04;28.40;1.00
14924;DHT22;7554;43.600;1.480;2023-07-29T05:53:32;28.80;1.00
14924;DHT22;7554;43.600;1.480;2023-07-29T05:55:59;29.10;1.00
14924;DHT22;7554;43.600;1.480;2023-07-29T05:58:28;29.30;1.00
14924;DHT22;7554;43.600;1.480;2023-07-29T06:00:57;29.60;1.00
14924;DHT22;7554;43.600;1.480;2023-07-29T06:03:24;30.00;1.00
14924;DHT22;7554;43.600;1.480;2023-07-29T06:05:51;30.40;1.00
14924;DHT22;7554;43.600;1.480;2023-07-29T06:08:19;31.00;1.00
14924;DHT22;7554;43.600;1.480;2023-07-29T06:10:46;30.80;1.00
14924;DHT22;7554;43.600;1.480;2023-07-29T06:13:13;30.70;1.00
14924;DHT22;7554;43.600;1.480;2023-07-29T06:15:42;31.00;1.00
14924;DHT22;7554;43.600;1.480;2023-07-29T06:18:09;32.00;1.00
14924;DHT22;7554;43.600;1.480;2023-07-29T06:20:37;32.20;1.00
14924;DHT22;7554;43.600;1.480;2023-07-29T06:23:04;32.40;1.00
14924;DHT22;7554;43.600;1.480;2023-07-29T06:25:31;32.70;1.00
14924;DHT22;7554;43.600;1.480;2023-07-29T06:27:59;33.00;1.00
14924;DHT22;7554;43.600;1.480;2023-07-29T06:30:26;33.60;1.00
14924;DHT22;7554;43.600;1.480;2023-07-29T06:32:55;34.00;1.00
14924;DHT22;7554;43.600;1.480;2023-07-29T06:35:22;34.20;1.00
14924;DHT22;7554;43.600;1.480;2023-07-29T06:37:49;33.80;1.00
14924;DHT22;7554;43.600;1.480;2023-07-29T06:40:17;34.00;1.00
14924;DHT22;7554;43.600;1.480;2023-07-29T06:42:44;34.30;1.00
14924;DHT22;7554;43.600;1.480;2023-07-29T06:45:11;35.00;1.00
14924;DHT22;7554;43.600;1.480;2023-07-29T06:47:39;35.20;1.00
14924;DHT22;7554;43.600;1.480;2023-07-29T06:50:08;35.80;1.00
14924;DHT22;7554;43.600;1.480;2023-07-29T06:52:36;36.00;1.00
14924;DHT22;7554;43.600;1.480;2023-07-29T06:55:04;36.40;1.00
14924;DHT22;7554;43.600;1.480;2023-07-29T06:57:31;36.80;1.00
14924;DHT22;7554;43.600;1.480;2023-07-29T06:59:59;37.10;1.00
14924;DHT22;7554;43.600;1.480;2023-07-29T07:02:26;37.20;1.00
14924;DHT22;7554;43.600;1.480;2023-07-29T07:04:53;36.40;1.00
14924;DHT22;7554;43.600;1.480;2023-07-29T07:07:22;37.10;1.00
14924;DHT22;7554;43.600;1.480;2023-07-29T07:09:50;38.10;1.00
14924;DHT22;7554;43.600;1.480;2023-07-29T07:12:17;37.80;1.00
14924;DHT22;7554;43.600;1.480;2023-07-29T07:14:44;38.30;1.00
14924;DHT22;7554;43.600;1.480;2023-07-29T07:17:12;38.80;1.00
14924;DHT22;7554;43.600;1.480;2023-07-29T07:19:39;39.40;1.00
14924;DHT22;7554;43.600;1.480;2023-07-29T07:22:06;39.80;1.00
14924;DHT22;7554;43.600;1.480;2023-07-29T07:24:35;38.80;1.00
14924;DHT22;7554;43.600;1.480;2023-07-29T07:27:02;39.50;1.00
14924;DHT22;7554;43.600;1.480;2023-07-29T07:29:30;39.60;1.00
14924;DHT22;7554;43.600;1.480;2023-07-29T07:31:58;40.00;1.00
14924;DHT22;7554;43.600;1.480;2023-07-29T07:34:25;40.90;1.00
14924;DHT22;7554;43.600;1.480;2023-07-29T07:36:53;40.30;1.00
14924;DHT22;7554;43.600;1.480;2023-07-29T07:39:20;39.70;1.00
14924;DHT22;7554;43.600;1.480;2023-07-29T07:41:49;40.20;1.00
14924;DHT22;7554;43.600;1.480;2023-07-29T07:44:16;40.60;1.00
14924;DHT22;7554;43.600;1.480;2023-07-29T07:46:45;41.00;1.00
14924;DHT22;7554;43.600;1.480;2023-07-29T07:49:14;41.20;1.00
14924;DHT22;7554;43.600;1.480;2023-07-29T07:51:43;41.00;1.00
14924;DHT22;7554;43.600;1.480;2023-07-29T07:54:10;42.10;1.00
14924;DHT22;7554;43.600;1.480;2023-07-29T07:56:38;42.80;1.00
14924;DHT22;7554;43.600;1.480;2023-07-29T07:59:07;41.90;1.00
14924;DHT22;7554;43.600;1.480;2023-07-29T08:01:35;41.70;1.00
14924;DHT22;7554;43.600;1.480;2023-07-29T08:04:02;42.80;1.00
14924;DHT22;7554;43.600;1.480;2023-07-29T08:06:30;42.60;1.00
14924;DHT22;7554;43.600;1.480;2023-07-29T08:08:57;43.00;1.00
14924;DHT22;7554;43.600;1.480;2023-07-29T08:11:25;42.80;1.00
14924;DHT22;7554;43.600;1.480;2023-07-29T08:13:52;42.70;1.00
14924;DHT22;7554;43.600;1.480;2023-07-29T08:16:21;43.50;1.00
14924;DHT22;7554;43.600;1.480;2023-07-29T08:18:48;43.30;1.00
14924;DHT22;7554;43.600;1.480;2023-07-29T08:21:16;43.00;1.00
14924;DHT22;7554;43.600;1.480;2023-07-29T08:23:43;44.00;1.00
14924;DHT22;7554;43.600;1.480;2023-07-29T08:26:10;44.40;1.00
14924;DHT22;7554;43.600;1.480;2023-07-29T08:28:39;43.40;1.00
14924;DHT22;7554;43.600;1.480;2023-07-29T08:31:06;44.20;1.00
14924;DHT22;7554;43.600;1.480;2023-07-29T08:33:35;42.60;1.00
14924;DHT22;7554;43.600;1.480;2023-07-29T08:36:03;42.50;1.00
14924;DHT22;7554;43.600;1.480;2023-07-29T08:38:30;42.80;1.00
14924;DHT22;7554;43.600;1.480;2023-07-29T08:41:03;42.20;1.00
14924;DHT22;7554;43.600;1.480;2023-07-29T08:43:32;43.60;1.00
14924;DHT22;7554;43.600;1.480;2023-07-29T08:46:00;42.50;1.00
14924;DHT22;7554;43.600;1.480;2023-07-29T08:48:32;42.00;1.00
14924;DHT22;7554;43.600;1.480;2023-07-29T08:51:05;42.20;1.00
14924;DHT22;7554;43.600;1.480;2023-07-29T08:53:35;42.90;1.00
14924;DHT22;7554;43.600;1.480;2023-07-29T08:56:03;42.60;1.00
14924;DHT22;7554;43.600;1.480;2023-07-29T08:58:31;42.30;1.00
14924;DHT22;7554;43.600;1.480;2023-07-29T09:00:59;43.10;1.00
14924;DHT22;7554;43.600;1.480;2023-07-29T09:03:27;44.00;1.00
14924;DHT22;7554;43.600;1.480;2023-07-29T09:05:55;45.40;1.00
14924;DHT22;7554;43.600;1.480;2023-07-29T09:08:26;44.90;1.00
14924;DHT22;7554;43.600;1.480;2023-07-29T09:10:54;44.00;1.00
14924;DHT22;7554;43.600;1.480;2023-07-29T09:13:21;45.30;1.00
14924;DHT22;7554;43.600;1.480;2023-07-29T09:15:49;45.90;1.00
14924;DHT22;7554;43.600;1.480;2023-07-29T09:18:18;46.70;1.00
14924;DHT22;7554;43.600;1.480;2023-07-29T09:20:47;46.20;1.00
14924;DHT22;7554;43.600;1.480;2023-07-29T09:23:15;46.60;1.00
14924;DHT22;7554;43.600;1.480;2023-07-29T09:25:46;46.80;1.00
14924;DHT22;7554;43.600;1.480;2023-07-29T09:28:15;47.30;1.00
14924;DHT22;7554;43.600;1.480;2023-07-29T09:30:44;47.60;1.00
14924;DHT22;7554;43.600;1.480;2023-07-29T09:33:12;47.70;1.00
14924;DHT22;7554;43.600;1.480;2023-07-29T09:35:40;47.00;1.00
14924;DHT22;7554;43.600;1.480;2023-07-29T09:38:07;46.90;1.00
14924;DHT22;7554;43.600;1.480;2023-07-29T09:40:37;47.30;1.00
14924;DHT22;7554;43.600;1.480;2023-07-29T09:43:08;46.90;1.00
14924;DHT22;7554;43.600;1.480;2023-07-29T09:45:37;46.20;1.00
14924;DHT22;7554;43.600;1.480;2023-07-29T09:48:05;46.10;1.00
14924;DHT22;7554;43.600;1.480;2023-07-29T09:50:35;44.70;1.00
14924;DHT22;7554;43.600;1.480;2023-07-29T09:53:03;43.10;1.00
14924;DHT22;7554;43.600;1.480;2023-07-29T09:55:33;39.30;1.00
14924;DHT22;7554;43.600;1.480;2023-07-29T09:58:01;36.50;1.00
14924;DHT22;7554;43.600;1.480;2023-07-29T10:00:34;35.30;1.00
14924;DHT22;7554;43.600;1.480;2023-07-29T10:03:04;33.70;1.00
14924;DHT22;7554;43.600;1.480;2023-07-29T10:05:33;34.20;1.00
14924;DHT22;7554;43.600;1.480;2023-07-29T10:08:01;34.20;1.00
14924;DHT22;7554;43.600;1.480;2023-07-29T10:10:29;34.50;1.00
14924;DHT22;7554;43.600;1.480;2023-07-29T10:12:57;34.30;1.00
14924;DHT22;7554;43.600;1.480;2023-07-29T10:15:25;34.40;1.00
14924;DHT22;7554;43.600;1.480;2023-07-29T10:17:55;34.30;1.00
14924;DHT22;7554;43.600;1.480;2023-07-29T10:20:22;34.10;1.00
14924;DHT22;7554;43.600;1.480;2023-07-29T10:22:51;34.00;1.00
14924;DHT22;7554;43.600;1.480;2023-07-29T10:25:23;34.20;1.00
14924;DHT22;7554;43.600;1.480;2023-07-29T10:27:56;34.40;1.00
14924;DHT22;7554;43.600;1.480;2023-07-29T10:30:24;34.60;1.00
14924;DHT22;7554;43.600;1.480;2023-07-29T10:32:53;34.50;1.00
14924;DHT22;7554;43.600;1.480;2023-07-29T10:35:23;34.60;1.00
14924;DHT22;7554;43.600;1.480;2023-07-29T10:37:51;34.70;1.00
14924;DHT22;7554;43.600;1.480;2023-07-29T10:40:19;34.70;1.00
14924;DHT22;7554;43.600;1.480;2023-07-29T10:43:00;34.30;1.00
14924;DHT22;7554;43.600;1.480;2023-07-29T10:45:36;34.30;1.00
14924;DHT22;7554;43.600;1.480;2023-07-29T10:48:09;34.60;1.00
14924;DHT22;7554;43.600;1.480;2023-07-29T10:50:37;34.10;1.00
14924;DHT22;7554;43.600;1.480;2023-07-29T10:53:05;34.30;1.00
14924;DHT22;7554;43.600;1.480;2023-07-29T10:55:34;34.50;1.00
14924;DHT22;7554;43.600;1.480;2023-07-29T10:58:12;34.80;1.00
14924;DHT22;7554;43.600;1.480;2023-07-29T11:00:41;35.20;1.00
14924;DHT22;7554;43.600;1.480;2023-07-29T11:03:12;35.50;1.00
14924;DHT22;7554;43.600;1.480;2023-07-29T11:05:48;35.70;1.00
14924;DHT22;7554;43.600;1.480;2023-07-29T11:08:24;35.90;1.00
14924;DHT22;7554;43.600;1.480;2023-07-29T11:11:03;36.00;1.00
14924;DHT22;7554;43.600;1.480;2023-07-29T11:13:32;35.90;1.00
14924;DHT22;7554;43.600;1.480;2023-07-29T11:16:00;35.80;1.00
14924;DHT22;7554;43.600;1.480;2023-07-29T11:18:30;35.60;1.00
14924;DHT22;7554;43.600;1.480;2023-07-29T11:20:58;35.30;1.00
14924;DHT22;7554;43.600;1.480;2023-07-29T11:23:33;34.30;1.00
14924;DHT22;7554;43.600;1.480;2023-07-29T11:26:02;33.90;1.00
14924;DHT22;7554;43.600;1.480;2023-07-29T11:28:29;33.70;1.00
14924;DHT22;7554;43.600;1.480;2023-07-29T11:30:57;33.10;1.00
14924;DHT22;7554;43.600;1.480;2023-07-29T11:33:26;33.00;1.00
14924;DHT22;7554;43.600;1.480;2023-07-29T11:35:56;33.10;1.00
14924;DHT22;7554;43.600;1.480;2023-07-29T11:38:23;33.20;1.00
14924;DHT22;7554;43.600;1.480;2023-07-29T11:40:58;33.30;1.00
14924;DHT22;7554;43.600;1.480;2023-07-29T11:43:26;33.10;1.00
14924;DHT22;7554;43.600;1.480;2023-07-29T11:45:54;33.00;1.00
14924;DHT22;7554;43.600;1.480;2023-07-29T11:48:28;32.90;1.00
14924;DHT22;7554;43.600;1.480;2023-07-29T11:50:57;32.90;1.00
14924;DHT22;7554;43.600;1.480;2023-07-29T11:53:27;32.90;1.00
14924;DHT22;7554;43.600;1.480;2023-07-29T11:55:55;32.90;1.00
14924;DHT22;7554;43.600;1.480;2023-07-29T11:58:23;32.90;1.00
14924;DHT22;7554;43.600;1.480;2023-07-29T12:00:51;33.00;1.00
14924;DHT22;7554;43.600;1.480;2023-07-29T12:03:19;32.90;1.00
14924;DHT22;7554;43.600;1.480;2023-07-29T12:05:46;32.90;1.00
14924;DHT22;7554;43.600;1.480;2023-07-29T12:08:16;32.90;1.00
14924;DHT22;7554;43.600;1.480;2023-07-29T12:10:43;32.80;1.00
14924;DHT22;7554;43.600;1.480;2023-07-29T12:13:11;32.30;1.00
14924;DHT22;7554;43.600;1.480;2023-07-29T12:15:38;32.70;1.00
14924;DHT22;7554;43.600;1.480;2023-07-29T12:18:06;33.00;1.00
14924;DHT22;7554;43.600;1.480;2023-07-29T12:20:34;33.00;1.00
14924;DHT22;7554;43.600;1.480;2023-07-29T12:23:01;33.20;1.00
14924;DHT22;7554;43.600;1.480;2023-07-29T12:25:32;33.30;1.00
14924;DHT22;7554;43.600;1.480;2023-07-29T12:28:03;33.60;1.00
14924;DHT22;7554;43.600;1.480;2023-07-29T12:30:32;33.50;1.00
14924;DHT22;7554;43.600;1.480;2023-07-29T12:32:59;33.60;1.00
14924;DHT22;7554;43.600;1.480;2023-07-29T12:35:37;33.60;1.00
14924;DHT22;7554;43.600;1.480;2023-07-29T12:38:05;33.10;1.00
14924;DHT22;7554;43.600;1.480;2023-07-29T12:40:38;32.80;1.00
14924;DHT22;7554;43.600;1.480;2023-07-29T12:43:05;32.70;1.00
14924;DHT22;7554;43.600;1.480;2023-07-29T12:45:36;32.50;1.00
14924;DHT22;7554;43.600;1.480;2023-07-29T12:48:05;32.40;1.00
14924;DHT22;7554;43.600;1.480;2023-07-29T12:50:33;32.80;1.00
14924;DHT22;7554;43.600;1.480;2023-07-29T12:53:00;33.00;1.00
14924;DHT22;7554;43.600;1.480;2023-07-29T12:55:27;33.10;1.00
14924;DHT22;7554;43.600;1.480;2023-07-29T12:57:56;33.50;1.00
14924;DHT22;7554;43.600;1.480;2023-07-29T13:00:25;33.60;1.00
14924;DHT22;7554;43.600;1.480;2023-07-29T13:02:52;33.70;1.00
14924;DHT22;7554;43.600;1.480;2023-07-29T13:05:20;33.90;1.00
14924;DHT22;7554;43.600;1.480;2023-07-29T13:07:47;34.20;1.00
14924;DHT22;7554;43.600;1.480;2023-07-29T13:10:15;34.40;1.00
14924;DHT22;7554;43.600;1.480;2023-07-29T13:12:42;34.50;1.00
14924;DHT22;7554;43.600;1.480;2023-07-29T13:15:11;34.50;1.00
14924;DHT22;7554;43.600;1.480;2023-07-29T13:17:39;34.20;1.00
14924;DHT22;7554;43.600;1.480;2023-07-29T13:20:07;33.90;1.00
14924;DHT22;7554;43.600;1.480;2023-07-29T13:22:35;34.00;1.00
14924;DHT22;7554;43.600;1.480;2023-07-29T13:25:03;34.00;1.00
14924;DHT22;7554;43.600;1.480;2023-07-29T13:27:31;33.90;1.00
14924;DHT22;7554;43.600;1.480;2023-07-29T13:29:58;34.20;1.00
14924;DHT22;7554;43.600;1.480;2023-07-29T13:32:27;34.20;1.00
14924;DHT22;7554;43.600;1.480;2023-07-29T13:34:54;34.40;1.00
14924;DHT22;7554;43.600;1.480;2023-07-29T13:37:21;34.40;1.00
14924;DHT22;7554;43.600;1.480;2023-07-29T13:39:48;34.70;1.00
14924;DHT22;7554;43.600;1.480;2023-07-29T13:42:16;34.80;1.00
14924;DHT22;7554;43.600;1.480;2023-07-29T13:44:43;34.70;1.00
14924;DHT22;7554;43.600;1.480;2023-07-29T13:47:10;34.80;1.00
14924;DHT22;7554;43.600;1.480;2023-07-29T13:49:39;34.90;1.00
14924;DHT22;7554;43.600;1.480;2023-07-29T13:52:07;34.90;1.00
14924;DHT22;7554;43.600;1.480;2023-07-29T13:54:34;35.00;1.00
14924;DHT22;7554;43.600;1.480;2023-07-29T13:57:01;35.10;1.00
14924;DHT22;7554;43.600;1.480;2023-07-29T13:59:29;34.90;1.00
14924;DHT22;7554;43.600;1.480;2023-07-29T14:01:56;34.90;1.00
14924;DHT22;7554;43.600;1.480;2023-07-29T14:04:23;34.90;1.00
14924;DHT22;7554;43.600;1.480;2023-07-29T14:06:52;35.00;1.00
14924;DHT22;7554;43.600;1.480;2023-07-29T14:09:19;34.90;1.00
14924;DHT22;7554;43.600;1.480;2023-07-29T14:11:47;34.70;1.00
14924;DHT22;7554;43.600;1.480;2023-07-29T14:14:14;34.60;1.00
14924;DHT22;7554;43.600;1.480;2023-07-29T14:16:41;34.50;1.00
14924;DHT22;7554;43.600;1.480;2023-07-29T14:19:09;34.30;1.00
14924;DHT22;7554;43.600;1.480;2023-07-29T14:21:36;34.20;1.00
14924;DHT22;7554;43.600;1.480;2023-07-29T14:24:05;34.20;1.00
14924;DHT22;7554;43.600;1.480;2023-07-29T14:26:33;34.40;1.00
14924;DHT22;7554;43.600;1.480;2023-07-29T14:29:00;34.50;1.00
14924;DHT22;7554;43.600;1.480;2023-07-29T14:31:27;34.30;1.00
14924;DHT22;7554;43.600;1.480;2023-07-29T14:33:55;34.20;1.00
14924;DHT22;7554;43.600;1.480;2023-07-29T14:36:22;34.10;1.00
14924;DHT22;7554;43.600;1.480;2023-07-29T14:38:49;34.00;1.00
14924;DHT22;7554;43.600;1.480;2023-07-29T14:41:18;34.00;1.00
14924;DHT22;7554;43.600;1.480;2023-07-29T14:43:46;34.00;1.00
14924;DHT22;7554;43.600;1.480;2023-07-29T14:46:13;34.20;1.00
14924;DHT22;7554;43.600;1.480;2023-07-29T14:48:40;34.00;1.00
14924;DHT22;7554;43.600;1.480;2023-07-29T14:51:08;34.30;1.00
14924;DHT22;7554;43.600;1.480;2023-07-29T14:53:35;34.50;1.00
14924;DHT22;7554;43.600;1.480;2023-07-29T14:56:02;34.40;1.00
14924;DHT22;7554;43.600;1.480;2023-07-29T14:58:31;34.20;1.00
14924;DHT22;7554;43.600;1.480;2023-07-29T15:00:58;34.10;1.00
14924;DHT22;7554;43.600;1.480;2023-07-29T15:03:26;34.20;1.00
14924;DHT22;7554;43.600;1.480;2023-07-29T15:05:53;34.00;1.00
14924;DHT22;7554;43.600;1.480;2023-07-29T15:08:20;34.00;1.00
14924;DHT22;7554;43.600;1.480;2023-07-29T15:10:48;34.00;1.00
14924;DHT22;7554;43.600;1.480;2023-07-29T15:13:15;33.80;1.00
14924;DHT22;7554;43.600;1.480;2023-07-29T15:15:44;33.60;1.00
14924;DHT22;7554;43.600;1.480;2023-07-29T15:18:11;33.70;1.00
14924;DHT22;7554;43.600;1.480;2023-07-29T15:20:39;33.60;1.00
14924;DHT22;7554;43.600;1.480;2023-07-29T15:23:06;33.50;1.00
14924;DHT22;7554;43.600;1.480;2023-07-29T15:25:33;33.70;1.00
14924;DHT22;7554;43.600;1.480;2023-07-29T15:28:01;33.80;1.00
14924;DHT22;7554;43.600;1.480;2023-07-29T15:30:28;33.90;1.00
14924;DHT22;7554;43.600;1.480;2023-07-29T15:32:57;33.70;1.00
14924;DHT22;7554;43.600;1.480;2023-07-29T15:35:24;33.50;1.00
14924;DHT22;7554;43.600;1.480;2023-07-29T15:37:52;33.30;1.00
14924;DHT22;7554;43.600;1.480;2023-07-29T15:40:19;33.20;1.00
14924;DHT22;7554;43.600;1.480;2023-07-29T15:42:46;33.40;1.00
14924;DHT22;7554;43.600;1.480;2023-07-29T15:45:14;33.30;1.00
14924;DHT22;7554;43.600;1.480;2023-07-29T15:47:42;33.10;1.00
14924;DHT22;7554;43.600;1.480;2023-07-29T15:50:10;33.20;1.00
14924;DHT22;7554;43.600;1.480;2023-07-29T15:52:38;33.20;1.00
14924;DHT22;7554;43.600;1.480;2023-07-29T15:55:08;33.20;1.00
14924;DHT22;7554;43.600;1.480;2023-07-29T15:57:35;33.10;1.00
14924;DHT22;7554;43.600;1.480;2023-07-29T16:00:03;33.10;1.00
14924;DHT22;7554;43.600;1.480;2023-07-29T16:02:31;32.90;1.00
14924;DHT22;7554;43.600;1.480;2023-07-29T16:04:58;32.90;1.00
14924;DHT22;7554;43.600;1.480;2023-07-29T16:07:27;32.90;1.00
14924;DHT22;7554;43.600;1.480;2023-07-29T16:09:54;33.10;1.00